Little Neck, NY (11363)

10:10 PM EST on December 22, 2014 (GMT -0500)
Floral Park, The Original 11001 Wx Site | Change Station
CLOSE
Current Station
Personal Weather Station
Location: Floral Park, NY
Elevation: 103 ft
Nearby Weather Stations

Elev 103 ft 40.73 °N, 73.71 °W | Updated 5 seconds ago

Overcast
Overcast
44.0 °F
Feels Like 44 °F
N
0.0
Wind Variable Wind from SSE
Gusts 4.0 mph

Today
High -- | Low -- °F
--% Chance of Precip.
Yesterday
High -- | Low -- °F
Precip. -- in
7:16 AM 4:31 PM
New Moon, 2% visible
Pressure 30.21 in
Visibility 2.0 miles
Clouds Overcast 800 ft
Windchill 44 °F
Dew Point 44 °F
Humidity 100%
Rainfall 0.00 in
Snow Depth Not available.
UV 0 out of 12
Pollen .10 out of 12
Air Quality Not available.
Flu Activity Not available.
SPECI KLGA 230303Z 04006KT 2SM -RA BR OVC008 06/05 A3021 RMK AO2 SFC VIS 2 1/2 P0000

More Conditions Fewer Conditions

Pressure 30.21 in
Visibility 2.0 miles
Clouds Overcast 800 ft
Windchill 44 °F
Dew Point 44 °F
Humidity 100%
Rainfall 0.00 in
Snow Depth Not available.
UV 0 out of 12
Pollen .10 out of 12
Air Quality Not available.
Flu Activity Not available.
SPECI KLGA 230303Z 04006KT 2SM -RA BR OVC008 06/05 A3021 RMK AO2 SFC VIS 2 1/2 P0000

More Conditions Fewer Conditions

10-Day Weather Forecast

Almanac

Astronomy

Dec. 22, 2014 Rise Set
Actual Time
Civil Twilight
Nautical Twilight
Astronomical Twilight
Moon
Length of Visible Light
Length of Day
Tomorrow will be .
, % of the Moon is Illuminated

Today's Extremes

State Highs State Lows

Community

WunderPhotos

Upload Photos

1,779,763 photos uploaded!

WunderBlogs® & News

Nearby

Air Quality

  Air Quality AQ Index Pollutant
Not available.

Snow Depth

Station Depth Elevation

Earthquake Activity

City Distance Mag. Time & Date
Minimum magnitude displayed is 2.5.

Coastal Water Temperatures

Place Temperature

Nearby Weather Stations